sensor_id;sensor_type;location;lat;lon;timestamp;temperature;humidity
30290;DHT22;17105;55.652;37.710;2022-12-18T00:00:29;0.50;91.80
30290;DHT22;17105;55.652;37.710;2022-12-18T00:01:05;0.50;91.80
30290;DHT22;17105;55.652;37.710;2022-12-18T00:01:39;0.40;91.80
30290;DHT22;17105;55.652;37.710;2022-12-18T00:02:14;0.40;91.90
30290;DHT22;17105;55.652;37.710;2022-12-18T00:02:50;0.40;91.90
30290;DHT22;17105;55.652;37.710;2022-12-18T00:03:25;0.40;91.90
30290;DHT22;17105;55.652;37.710;2022-12-18T00:04:01;0.40;91.80
30290;DHT22;17105;55.652;37.710;2022-12-18T00:04:37;0.40;91.80
30290;DHT22;17105;55.652;37.710;2022-12-18T00:05:11;0.40;91.80
30290;DHT22;17105;55.652;37.710;2022-12-18T00:05:47;0.40;91.80
30290;DHT22;17105;55.652;37.710;2022-12-18T00:06:22;0.40;91.80
30290;DHT22;17105;55.652;37.710;2022-12-18T00:06:58;0.40;91.80
30290;DHT22;17105;55.652;37.710;2022-12-18T00:07:36;0.40;91.80
30290;DHT22;17105;55.652;37.710;2022-12-18T00:08:10;0.40;91.70
30290;DHT22;17105;55.652;37.710;2022-12-18T00:08:43;0.40;91.70
30290;DHT22;17105;55.652;37.710;2022-12-18T00:09:19;0.40;91.70
30290;DHT22;17105;55.652;37.710;2022-12-18T00:09:57;0.40;91.70
30290;DHT22;17105;55.652;37.710;2022-12-18T00:10:33;0.40;91.60
30290;DHT22;17105;55.652;37.710;2022-12-18T00:11:08;0.40;91.60
30290;DHT22;17105;55.652;37.710;2022-12-18T00:11:42;0.40;91.60
30290;DHT22;17105;55.652;37.710;2022-12-18T00:12:17;0.40;91.50
30290;DHT22;17105;55.652;37.710;2022-12-18T00:12:52;0.40;91.40
30290;DHT22;17105;55.652;37.710;2022-12-18T00:13:28;0.50;91.50
30290;DHT22;17105;55.652;37.710;2022-12-18T00:14:03;0.50;91.40
30290;DHT22;17105;55.652;37.710;2022-12-18T00:14:39;0.50;91.30
30290;DHT22;17105;55.652;37.710;2022-12-18T00:15:14;0.50;91.30
30290;DHT22;17105;55.652;37.710;2022-12-18T00:15:49;0.50;91.40
30290;DHT22;17105;55.652;37.710;2022-12-18T00:16:29;0.50;91.40
30290;DHT22;17105;55.652;37.710;2022-12-18T00:17:08;0.50;91.50
30290;DHT22;17105;55.652;37.710;2022-12-18T00:17:44;0.40;91.50
30290;DHT22;17105;55.652;37.710;2022-12-18T00:18:19;0.40;91.60
30290;DHT22;17105;55.652;37.710;2022-12-18T00:18:54;0.40;91.60
30290;DHT22;17105;55.652;37.710;2022-12-18T00:19:30;0.40;91.60
30290;DHT22;17105;55.652;37.710;2022-12-18T00:20:06;0.40;91.70
30290;DHT22;17105;55.652;37.710;2022-12-18T00:20:43;0.40;91.60
30290;DHT22;17105;55.652;37.710;2022-12-18T00:21:16;0.40;91.60
30290;DHT22;17105;55.652;37.710;2022-12-18T00:21:51;0.40;91.60
30290;DHT22;17105;55.652;37.710;2022-12-18T00:22:25;0.40;91.60
30290;DHT22;17105;55.652;37.710;2022-12-18T00:23:01;0.40;91.70
30290;DHT22;17105;55.652;37.710;2022-12-18T00:23:37;0.40;91.70
30290;DHT22;17105;55.652;37.710;2022-12-18T00:24:11;0.40;91.70
30290;DHT22;17105;55.652;37.710;2022-12-18T00:24:46;0.40;91.70
30290;DHT22;17105;55.652;37.710;2022-12-18T00:25:20;0.40;91.70
30290;DHT22;17105;55.652;37.710;2022-12-18T00:25:54;0.40;91.70
30290;DHT22;17105;55.652;37.710;2022-12-18T00:26:30;0.40;91.70
30290;DHT22;17105;55.652;37.710;2022-12-18T00:27:06;0.40;91.60
30290;DHT22;17105;55.652;37.710;2022-12-18T00:27:41;0.50;91.60
30290;DHT22;17105;55.652;37.710;2022-12-18T00:28:15;0.50;91.50
30290;DHT22;17105;55.652;37.710;2022-12-18T00:28:50;0.50;91.40
30290;DHT22;17105;55.652;37.710;2022-12-18T00:29:24;0.50;91.40
30290;DHT22;17105;55.652;37.710;2022-12-18T00:30:00;0.50;91.40
30290;DHT22;17105;55.652;37.710;2022-12-18T00:30:35;0.50;91.50
30290;DHT22;17105;55.652;37.710;2022-12-18T00:31:11;0.50;91.30
30290;DHT22;17105;55.652;37.710;2022-12-18T00:31:45;0.50;91.30
30290;DHT22;17105;55.652;37.710;2022-12-18T00:32:20;0.50;91.30
30290;DHT22;17105;55.652;37.710;2022-12-18T00:32:54;0.50;91.20
30290;DHT22;17105;55.652;37.710;2022-12-18T00:33:31;0.50;91.10
30290;DHT22;17105;55.652;37.710;2022-12-18T00:34:04;0.50;91.10
30290;DHT22;17105;55.652;37.710;2022-12-18T00:34:38;0.50;91.10
30290;DHT22;17105;55.652;37.710;2022-12-18T00:35:14;0.50;91.10
30290;DHT22;17105;55.652;37.710;2022-12-18T00:35:48;0.50;91.20
30290;DHT22;17105;55.652;37.710;2022-12-18T00:36:24;0.50;91.20
30290;DHT22;17105;55.652;37.710;2022-12-18T00:37:00;0.50;91.20
30290;DHT22;17105;55.652;37.710;2022-12-18T00:37:35;0.50;91.30
30290;DHT22;17105;55.652;37.710;2022-12-18T00:38:09;0.50;91.40
30290;DHT22;17105;55.652;37.710;2022-12-18T00:38:45;0.50;91.40
30290;DHT22;17105;55.652;37.710;2022-12-18T00:39:22;0.40;91.40
30290;DHT22;17105;55.652;37.710;2022-12-18T00:39:57;0.50;91.40
30290;DHT22;17105;55.652;37.710;2022-12-18T00:40:31;0.50;91.40
30290;DHT22;17105;55.652;37.710;2022-12-18T00:41:06;0.50;91.40
30290;DHT22;17105;55.652;37.710;2022-12-18T00:41:41;0.50;91.30
30290;DHT22;17105;55.652;37.710;2022-12-18T00:42:33;0.50;91.20
30290;DHT22;17105;55.652;37.710;2022-12-18T00:43:24;0.50;91.20
30290;DHT22;17105;55.652;37.710;2022-12-18T00:43:59;0.50;91.20
30290;DHT22;17105;55.652;37.710;2022-12-18T00:44:32;0.50;91.20
30290;DHT22;17105;55.652;37.710;2022-12-18T00:45:08;0.50;91.30
30290;DHT22;17105;55.652;37.710;2022-12-18T00:45:44;0.50;91.30
30290;DHT22;17105;55.652;37.710;2022-12-18T00:46:20;0.40;91.30
30290;DHT22;17105;55.652;37.710;2022-12-18T00:46:55;0.50;91.30
30290;DHT22;17105;55.652;37.710;2022-12-18T00:47:29;0.50;91.30
30290;DHT22;17105;55.652;37.710;2022-12-18T00:48:05;0.50;91.30
30290;DHT22;17105;55.652;37.710;2022-12-18T00:48:41;0.50;91.30
30290;DHT22;17105;55.652;37.710;2022-12-18T00:49:18;0.50;91.30
30290;DHT22;17105;55.652;37.710;2022-12-18T00:50:04;0.50;91.20
30290;DHT22;17105;55.652;37.710;2022-12-18T00:50:38;0.50;91.20
30290;DHT22;17105;55.652;37.710;2022-12-18T00:51:12;0.50;91.20
30290;DHT22;17105;55.652;37.710;2022-12-18T00:51:47;0.50;91.20
30290;DHT22;17105;55.652;37.710;2022-12-18T00:52:21;0.50;91.20
30290;DHT22;17105;55.652;37.710;2022-12-18T00:52:54;0.50;91.20
30290;DHT22;17105;55.652;37.710;2022-12-18T00:53:29;0.50;91.10
30290;DHT22;17105;55.652;37.710;2022-12-18T00:54:04;0.50;91.10
30290;DHT22;17105;55.652;37.710;2022-12-18T00:54:38;0.50;91.10
30290;DHT22;17105;55.652;37.710;2022-12-18T00:55:16;0.50;91.10
30290;DHT22;17105;55.652;37.710;2022-12-18T00:55:52;0.50;91.10
30290;DHT22;17105;55.652;37.710;2022-12-18T00:56:26;0.50;91.10
30290;DHT22;17105;55.652;37.710;2022-12-18T00:57:00;0.50;91.20
30290;DHT22;17105;55.652;37.710;2022-12-18T00:57:34;0.40;91.20
30290;DHT22;17105;55.652;37.710;2022-12-18T00:58:08;0.50;91.20
30290;DHT22;17105;55.652;37.710;2022-12-18T00:58:43;0.50;91.20
30290;DHT22;17105;55.652;37.710;2022-12-18T00:59:19;0.50;91.20
30290;DHT22;17105;55.652;37.710;2022-12-18T00:59:54;0.50;91.20
30290;DHT22;17105;55.652;37.710;2022-12-18T01:00:30;0.50;91.20
30290;DHT22;17105;55.652;37.710;2022-12-18T01:01:05;0.50;91.20
30290;DHT22;17105;55.652;37.710;2022-12-18T01:01:40;0.50;91.10
30290;DHT22;17105;55.652;37.710;2022-12-18T01:02:14;0.40;91.10
30290;DHT22;17105;55.652;37.710;2022-12-18T01:02:50;0.50;91.10
30290;DHT22;17105;55.652;37.710;2022-12-18T01:03:25;0.50;91.00
30290;DHT22;17105;55.652;37.710;2022-12-18T01:04:00;0.50;90.90
30290;DHT22;17105;55.652;37.710;2022-12-18T01:04:35;0.50;90.90
30290;DHT22;17105;55.652;37.710;2022-12-18T01:05:11;0.50;90.90
30290;DHT22;17105;55.652;37.710;2022-12-18T01:05:46;0.50;90.90
30290;DHT22;17105;55.652;37.710;2022-12-18T01:06:23;0.50;90.90
30290;DHT22;17105;55.652;37.710;2022-12-18T01:06:58;0.50;90.80
30290;DHT22;17105;55.652;37.710;2022-12-18T01:07:32;0.50;90.80
30290;DHT22;17105;55.652;37.710;2022-12-18T01:08:08;0.50;90.80
30290;DHT22;17105;55.652;37.710;2022-12-18T01:08:41;0.40;90.80
30290;DHT22;17105;55.652;37.710;2022-12-18T01:09:18;0.40;90.80
30290;DHT22;17105;55.652;37.710;2022-12-18T01:09:53;0.40;90.80
30290;DHT22;17105;55.652;37.710;2022-12-18T01:10:27;0.40;90.90
30290;DHT22;17105;55.652;37.710;2022-12-18T01:11:08;0.40;90.90
30290;DHT22;17105;55.652;37.710;2022-12-18T01:11:43;0.40;90.80
30290;DHT22;17105;55.652;37.710;2022-12-18T01:12:16;0.40;90.80
30290;DHT22;17105;55.652;37.710;2022-12-18T01:12:49;0.40;90.70
30290;DHT22;17105;55.652;37.710;2022-12-18T01:13:25;0.50;90.80
30290;DHT22;17105;55.652;37.710;2022-12-18T01:13:59;0.50;90.80
30290;DHT22;17105;55.652;37.710;2022-12-18T01:14:33;0.40;90.70
30290;DHT22;17105;55.652;37.710;2022-12-18T01:15:10;0.50;90.60
30290;DHT22;17105;55.652;37.710;2022-12-18T01:15:49;0.50;90.50
30290;DHT22;17105;55.652;37.710;2022-12-18T01:16:23;0.50;90.40
30290;DHT22;17105;55.652;37.710;2022-12-18T01:16:58;0.50;90.40
30290;DHT22;17105;55.652;37.710;2022-12-18T01:17:33;0.50;90.40
30290;DHT22;17105;55.652;37.710;2022-12-18T01:18:07;0.50;90.40
30290;DHT22;17105;55.652;37.710;2022-12-18T01:18:41;0.50;90.50
30290;DHT22;17105;55.652;37.710;2022-12-18T01:19:15;0.50;90.50
30290;DHT22;17105;55.652;37.710;2022-12-18T01:19:52;0.50;90.50
30290;DHT22;17105;55.652;37.710;2022-12-18T01:20:27;0.50;90.40
30290;DHT22;17105;55.652;37.710;2022-12-18T01:21:06;0.50;90.50
30290;DHT22;17105;55.652;37.710;2022-12-18T01:21:41;0.40;90.40
30290;DHT22;17105;55.652;37.710;2022-12-18T01:22:16;0.40;90.50
30290;DHT22;17105;55.652;37.710;2022-12-18T01:22:50;0.40;90.50
30290;DHT22;17105;55.652;37.710;2022-12-18T01:23:23;0.40;90.50
30290;DHT22;17105;55.652;37.710;2022-12-18T01:24:01;0.40;90.50
30290;DHT22;17105;55.652;37.710;2022-12-18T01:24:35;0.40;90.50
30290;DHT22;17105;55.652;37.710;2022-12-18T01:25:09;0.40;90.50
30290;DHT22;17105;55.652;37.710;2022-12-18T01:25:43;0.40;90.40
30290;DHT22;17105;55.652;37.710;2022-12-18T01:26:16;0.40;90.40
30290;DHT22;17105;55.652;37.710;2022-12-18T01:26:51;0.40;90.30
30290;DHT22;17105;55.652;37.710;2022-12-18T01:27:28;0.40;90.30
30290;DHT22;17105;55.652;37.710;2022-12-18T01:28:01;0.40;90.30
30290;DHT22;17105;55.652;37.710;2022-12-18T01:28:37;0.40;90.30
30290;DHT22;17105;55.652;37.710;2022-12-18T01:29:12;0.50;90.30
30290;DHT22;17105;55.652;37.710;2022-12-18T01:29:48;0.40;90.20
30290;DHT22;17105;55.652;37.710;2022-12-18T01:30:24;0.50;90.20
30290;DHT22;17105;55.652;37.710;2022-12-18T01:31:10;0.50;90.10
30290;DHT22;17105;55.652;37.710;2022-12-18T01:31:45;0.50;90.10
30290;DHT22;17105;55.652;37.710;2022-12-18T01:32:19;0.50;90.10
30290;DHT22;17105;55.652;37.710;2022-12-18T01:32:54;0.50;90.10
30290;DHT22;17105;55.652;37.710;2022-12-18T01:33:27;0.50;90.10
30290;DHT22;17105;55.652;37.710;2022-12-18T01:34:01;0.50;90.10
30290;DHT22;17105;55.652;37.710;2022-12-18T01:34:37;0.50;90.10
30290;DHT22;17105;55.652;37.710;2022-12-18T01:35:11;0.50;90.00
30290;DHT22;17105;55.652;37.710;2022-12-18T01:35:45;0.50;90.00
30290;DHT22;17105;55.652;37.710;2022-12-18T01:36:22;0.50;90.00
30290;DHT22;17105;55.652;37.710;2022-12-18T01:36:56;0.50;90.00
30290;DHT22;17105;55.652;37.710;2022-12-18T01:37:31;0.50;90.00
30290;DHT22;17105;55.652;37.710;2022-12-18T01:38:07;0.50;90.00
30290;DHT22;17105;55.652;37.710;2022-12-18T01:38:40;0.50;90.00
30290;DHT22;17105;55.652;37.710;2022-12-18T01:39:15;0.50;90.10
30290;DHT22;17105;55.652;37.710;2022-12-18T01:39:50;0.50;90.00
30290;DHT22;17105;55.652;37.710;2022-12-18T01:40:25;0.50;90.00
30290;DHT22;17105;55.652;37.710;2022-12-18T01:41:00;0.50;89.90
30290;DHT22;17105;55.652;37.710;2022-12-18T01:41:34;0.50;89.90
30290;DHT22;17105;55.652;37.710;2022-12-18T01:42:22;0.50;90.00
30290;DHT22;17105;55.652;37.710;2022-12-18T01:42:59;0.50;89.90
30290;DHT22;17105;55.652;37.710;2022-12-18T01:43:47;0.50;89.80
30290;DHT22;17105;55.652;37.710;2022-12-18T01:44:56;0.50;89.60
30290;DHT22;17105;55.652;37.710;2022-12-18T01:45:31;0.50;89.40
30290;DHT22;17105;55.652;37.710;2022-12-18T01:46:07;0.50;89.30
30290;DHT22;17105;55.652;37.710;2022-12-18T01:46:43;0.50;89.30
30290;DHT22;17105;55.652;37.710;2022-12-18T01:47:21;0.50;89.30
30290;DHT22;17105;55.652;37.710;2022-12-18T01:47:57;0.50;89.20
30290;DHT22;17105;55.652;37.710;2022-12-18T01:48:32;0.50;89.10
30290;DHT22;17105;55.652;37.710;2022-12-18T01:49:07;0.50;89.00
30290;DHT22;17105;55.652;37.710;2022-12-18T01:49:42;0.50;89.00
30290;DHT22;17105;55.652;37.710;2022-12-18T01:50:20;0.50;89.00
30290;DHT22;17105;55.652;37.710;2022-12-18T01:51:00;0.50;88.90
30290;DHT22;17105;55.652;37.710;2022-12-18T01:51:35;0.50;88.80
30290;DHT22;17105;55.652;37.710;2022-12-18T01:52:10;0.50;88.90
30290;DHT22;17105;55.652;37.710;2022-12-18T01:52:48;0.50;88.90
30290;DHT22;17105;55.652;37.710;2022-12-18T01:53:23;0.40;89.10
30290;DHT22;17105;55.652;37.710;2022-12-18T01:53:57;0.40;89.10
30290;DHT22;17105;55.652;37.710;2022-12-18T01:54:32;0.40;89.10
30290;DHT22;17105;55.652;37.710;2022-12-18T01:55:07;0.40;89.30
30290;DHT22;17105;55.652;37.710;2022-12-18T01:55:45;0.40;89.40
30290;DHT22;17105;55.652;37.710;2022-12-18T01:56:21;0.40;89.30
30290;DHT22;17105;55.652;37.710;2022-12-18T01:56:56;0.40;89.30
30290;DHT22;17105;55.652;37.710;2022-12-18T01:57:30;0.30;89.40
30290;DHT22;17105;55.652;37.710;2022-12-18T01:58:06;0.40;89.50
30290;DHT22;17105;55.652;37.710;2022-12-18T01:58:45;0.30;89.30
30290;DHT22;17105;55.652;37.710;2022-12-18T01:59:20;0.30;89.40
30290;DHT22;17105;55.652;37.710;2022-12-18T01:59:58;0.30;89.40
30290;DHT22;17105;55.652;37.710;2022-12-18T02:00:45;0.30;89.30
30290;DHT22;17105;55.652;37.710;2022-12-18T02:01:23;0.40;89.40
30290;DHT22;17105;55.652;37.710;2022-12-18T02:01:59;0.40;89.30
30290;DHT22;17105;55.652;37.710;2022-12-18T02:02:34;0.40;89.20
30290;DHT22;17105;55.652;37.710;2022-12-18T02:03:09;0.40;88.90
30290;DHT22;17105;55.652;37.710;2022-12-18T02:03:43;0.40;88.80
30290;DHT22;17105;55.652;37.710;2022-12-18T02:04:21;0.40;88.70
30290;DHT22;17105;55.652;37.710;2022-12-18T02:04:57;0.30;88.80
30290;DHT22;17105;55.652;37.710;2022-12-18T02:05:43;0.40;88.90
30290;DHT22;17105;55.652;37.710;2022-12-18T02:06:23;0.30;88.90
30290;DHT22;17105;55.652;37.710;2022-12-18T02:07:05;0.40;89.10
30290;DHT22;17105;55.652;37.710;2022-12-18T02:07:48;0.40;89.10
30290;DHT22;17105;55.652;37.710;2022-12-18T02:08:33;0.30;89.10
30290;DHT22;17105;55.652;37.710;2022-12-18T02:09:11;0.30;89.30
30290;DHT22;17105;55.652;37.710;2022-12-18T02:09:48;0.30;89.40
30290;DHT22;17105;55.652;37.710;2022-12-18T02:10:26;0.30;89.50
30290;DHT22;17105;55.652;37.710;2022-12-18T02:11:06;0.30;89.60
30290;DHT22;17105;55.652;37.710;2022-12-18T02:11:48;0.20;89.70
30290;DHT22;17105;55.652;37.710;2022-12-18T02:12:33;0.20;89.80
30290;DHT22;17105;55.652;37.710;2022-12-18T02:13:14;0.20;89.90
30290;DHT22;17105;55.652;37.710;2022-12-18T02:14:18;0.20;89.90
30290;DHT22;17105;55.652;37.710;2022-12-18T02:15:04;0.20;89.80
30290;DHT22;17105;55.652;37.710;2022-12-18T02:15:51;0.20;89.80
30290;DHT22;17105;55.652;37.710;2022-12-18T02:16:36;0.20;89.80
30290;DHT22;17105;55.652;37.710;2022-12-18T02:17:18;0.20;89.70
30290;DHT22;17105;55.652;37.710;2022-12-18T02:17:56;0.30;89.70
30290;DHT22;17105;55.652;37.710;2022-12-18T02:18:35;0.20;90.00
30290;DHT22;17105;55.652;37.710;2022-12-18T02:19:18;0.20;89.50
30290;DHT22;17105;55.652;37.710;2022-12-18T02:20:04;0.20;89.70
30290;DHT22;17105;55.652;37.710;2022-12-18T02:20:46;0.20;89.90
30290;DHT22;17105;55.652;37.710;2022-12-18T02:21:29;0.20;90.00
30290;DHT22;17105;55.652;37.710;2022-12-18T02:22:20;0.20;89.90
30290;DHT22;17105;55.652;37.710;2022-12-18T02:23:09;0.20;89.90
30290;DHT22;17105;55.652;37.710;2022-12-18T02:23:52;0.20;89.80
30290;DHT22;17105;55.652;37.710;2022-12-18T02:24:33;0.20;89.60
30290;DHT22;17105;55.652;37.710;2022-12-18T02:25:20;0.20;89.50
30290;DHT22;17105;55.652;37.710;2022-12-18T02:26:14;0.20;89.40
30290;DHT22;17105;55.652;37.710;2022-12-18T02:26:57;0.20;89.40
30290;DHT22;17105;55.652;37.710;2022-12-18T02:27:33;0.20;89.50
30290;DHT22;17105;55.652;37.710;2022-12-18T02:28:11;0.20;89.50
30290;DHT22;17105;55.652;37.710;2022-12-18T02:28:49;0.20;89.40
30290;DHT22;17105;55.652;37.710;2022-12-18T02:29:27;0.20;89.50
30290;DHT22;17105;55.652;37.710;2022-12-18T02:30:04;0.20;89.60
30290;DHT22;17105;55.652;37.710;2022-12-18T02:30:40;0.20;89.60
30290;DHT22;17105;55.652;37.710;2022-12-18T02:31:18;0.20;89.50
30290;DHT22;17105;55.652;37.710;2022-12-18T02:31:56;0.20;89.40
30290;DHT22;17105;55.652;37.710;2022-12-18T02:32:39;0.20;89.30
30290;DHT22;17105;55.652;37.710;2022-12-18T02:33:15;0.20;89.30
30290;DHT22;17105;55.652;37.710;2022-12-18T02:33:51;0.20;89.30
30290;DHT22;17105;55.652;37.710;2022-12-18T02:34:28;0.20;89.30
30290;DHT22;17105;55.652;37.710;2022-12-18T02:35:05;0.20;89.40
30290;DHT22;17105;55.652;37.710;2022-12-18T02:35:40;0.20;89.50
30290;DHT22;17105;55.652;37.710;2022-12-18T02:36:19;0.10;89.30
30290;DHT22;17105;55.652;37.710;2022-12-18T02:36:54;0.10;89.50
30290;DHT22;17105;55.652;37.710;2022-12-18T02:37:33;0.10;89.60
30290;DHT22;17105;55.652;37.710;2022-12-18T02:38:12;0.10;89.70
30290;DHT22;17105;55.652;37.710;2022-12-18T02:38:50;0.00;89.80
30290;DHT22;17105;55.652;37.710;2022-12-18T02:39:27;0.10;89.90
30290;DHT22;17105;55.652;37.710;2022-12-18T02:40:10;0.10;90.20
30290;DHT22;17105;55.652;37.710;2022-12-18T02:40:44;0.00;89.80
30290;DHT22;17105;55.652;37.710;2022-12-18T02:41:23;0.10;90.00
30290;DHT22;17105;55.652;37.710;2022-12-18T02:41:59;0.10;89.90
30290;DHT22;17105;55.652;37.710;2022-12-18T02:42:35;0.10;90.00
30290;DHT22;17105;55.652;37.710;2022-12-18T02:43:14;0.10;90.00
30290;DHT22;17105;55.652;37.710;2022-12-18T02:43:55;0.00;90.00
30290;DHT22;17105;55.652;37.710;2022-12-18T02:44:29;0.00;90.00
30290;DHT22;17105;55.652;37.710;2022-12-18T02:45:06;0.00;90.00
30290;DHT22;17105;55.652;37.710;2022-12-18T02:45:47;0.10;90.00
30290;DHT22;17105;55.652;37.710;2022-12-18T02:46:30;0.10;90.00
30290;DHT22;17105;55.652;37.710;2022-12-18T02:47:10;0.10;90.00
30290;DHT22;17105;55.652;37.710;2022-12-18T02:47:47;0.10;90.00
30290;DHT22;17105;55.652;37.710;2022-12-18T02:48:24;0.10;90.00
30290;DHT22;17105;55.652;37.710;2022-12-18T02:49:06;0.10;90.00
30290;DHT22;17105;55.652;37.710;2022-12-18T02:49:51;0.10;89.80
30290;DHT22;17105;55.652;37.710;2022-12-18T02:50:37;0.10;89.80
30290;DHT22;17105;55.652;37.710;2022-12-18T02:51:17;0.10;89.80
30290;DHT22;17105;55.652;37.710;2022-12-18T02:51:56;0.10;89.80
30290;DHT22;17105;55.652;37.710;2022-12-18T02:52:41;0.10;89.80
30290;DHT22;17105;55.652;37.710;2022-12-18T02:53:21;0.10;89.70
30290;DHT22;17105;55.652;37.710;2022-12-18T02:54:01;0.10;89.80
30290;DHT22;17105;55.652;37.710;2022-12-18T02:54:52;0.10;89.80
30290;DHT22;17105;55.652;37.710;2022-12-18T02:55:37;0.10;89.90
30290;DHT22;17105;55.652;37.710;2022-12-18T02:56:20;0.10;89.90
30290;DHT22;17105;55.652;37.710;2022-12-18T02:56:58;0.10;89.80
30290;DHT22;17105;55.652;37.710;2022-12-18T02:57:39;0.10;89.70
30290;DHT22;17105;55.652;37.710;2022-12-18T02:58:18;0.10;89.70
30290;DHT22;17105;55.652;37.710;2022-12-18T02:59:00;0.10;89.60
30290;DHT22;17105;55.652;37.710;2022-12-18T02:59:49;0.10;89.60
30290;DHT22;17105;55.652;37.710;2022-12-18T03:00:30;0.00;89.70
30290;DHT22;17105;55.652;37.710;2022-12-18T03:01:09;0.00;89.90
30290;DHT22;17105;55.652;37.710;2022-12-18T03:01:51;0.00;89.80
30290;DHT22;17105;55.652;37.710;2022-12-18T03:02:33;-0.10;89.90
30290;DHT22;17105;55.652;37.710;2022-12-18T03:03:13;-0.10;89.80
30290;DHT22;17105;55.652;37.710;2022-12-18T03:03:52;-0.10;89.80
30290;DHT22;17105;55.652;37.710;2022-12-18T03:04:32;-0.10;90.00
30290;DHT22;17105;55.652;37.710;2022-12-18T03:05:13;-0.20;90.00
30290;DHT22;17105;55.652;37.710;2022-12-18T03:05:53;-0.20;90.00
30290;DHT22;17105;55.652;37.710;2022-12-18T03:06:32;-0.20;90.10
30290;DHT22;17105;55.652;37.710;2022-12-18T03:07:11;-0.20;90.10
30290;DHT22;17105;55.652;37.710;2022-12-18T03:07:55;-0.20;90.10
30290;DHT22;17105;55.652;37.710;2022-12-18T03:08:37;-0.30;90.10
30290;DHT22;17105;55.652;37.710;2022-12-18T03:09:14;-0.30;90.00
30290;DHT22;17105;55.652;37.710;2022-12-18T03:09:50;-0.30;90.10
30290;DHT22;17105;55.652;37.710;2022-12-18T03:10:28;-0.30;90.10
30290;DHT22;17105;55.652;37.710;2022-12-18T03:11:08;-0.30;90.20
30290;DHT22;17105;55.652;37.710;2022-12-18T03:11:50;-0.30;90.20
30290;DHT22;17105;55.652;37.710;2022-12-18T03:12:50;-0.30;90.30
30290;DHT22;17105;55.652;37.710;2022-12-18T03:13:30;-0.30;90.30
30290;DHT22;17105;55.652;37.710;2022-12-18T03:14:07;-0.30;90.30
30290;DHT22;17105;55.652;37.710;2022-12-18T03:14:43;-0.30;90.30
30290;DHT22;17105;55.652;37.710;2022-12-18T03:15:25;-0.30;90.30
30290;DHT22;17105;55.652;37.710;2022-12-18T03:16:11;-0.30;90.50
30290;DHT22;17105;55.652;37.710;2022-12-18T03:16:50;-0.20;90.30
30290;DHT22;17105;55.652;37.710;2022-12-18T03:17:27;-0.20;90.30
30290;DHT22;17105;55.652;37.710;2022-12-18T03:18:08;-0.20;90.20
30290;DHT22;17105;55.652;37.710;2022-12-18T03:18:48;-0.20;90.30
30290;DHT22;17105;55.652;37.710;2022-12-18T03:19:25;-0.20;90.30
30290;DHT22;17105;55.652;37.710;2022-12-18T03:20:07;-0.20;90.30
30290;DHT22;17105;55.652;37.710;2022-12-18T03:20:45;-0.30;90.20
30290;DHT22;17105;55.652;37.710;2022-12-18T03:21:30;-0.30;90.20
30290;DHT22;17105;55.652;37.710;2022-12-18T03:22:08;-0.30;90.30
30290;DHT22;17105;55.652;37.710;2022-12-18T03:22:55;-0.30;90.30
30290;DHT22;17105;55.652;37.710;2022-12-18T03:23:35;-0.30;90.40
30290;DHT22;17105;55.652;37.710;2022-12-18T03:24:15;-0.30;90.40
30290;DHT22;17105;55.652;37.710;2022-12-18T03:24:52;-0.30;90.50
30290;DHT22;17105;55.652;37.710;2022-12-18T03:25:30;-0.30;90.50
30290;DHT22;17105;55.652;37.710;2022-12-18T03:26:09;-0.30;90.50
30290;DHT22;17105;55.652;37.710;2022-12-18T03:26:50;-0.20;90.60
30290;DHT22;17105;55.652;37.710;2022-12-18T03:27:28;-0.20;90.60
30290;DHT22;17105;55.652;37.710;2022-12-18T03:28:12;-0.20;90.50
30290;DHT22;17105;55.652;37.710;2022-12-18T03:28:49;-0.20;90.50
30290;DHT22;17105;55.652;37.710;2022-12-18T03:29:26;-0.20;90.50
30290;DHT22;17105;55.652;37.710;2022-12-18T03:30:04;-0.30;90.40
30290;DHT22;17105;55.652;37.710;2022-12-18T03:30:44;-0.20;90.50
30290;DHT22;17105;55.652;37.710;2022-12-18T03:31:23;-0.30;90.60
30290;DHT22;17105;55.652;37.710;2022-12-18T03:32:01;-0.30;90.70
30290;DHT22;17105;55.652;37.710;2022-12-18T03:32:41;-0.30;90.80
30290;DHT22;17105;55.652;37.710;2022-12-18T03:33:19;-0.30;90.70
30290;DHT22;17105;55.652;37.710;2022-12-18T03:33:58;-0.30;90.70
30290;DHT22;17105;55.652;37.710;2022-12-18T03:34:43;-0.40;90.90
30290;DHT22;17105;55.652;37.710;2022-12-18T03:35:24;-0.40;90.90
30290;DHT22;17105;55.652;37.710;2022-12-18T03:35:58;-0.40;91.00
30290;DHT22;17105;55.652;37.710;2022-12-18T03:36:34;-0.40;91.00
30290;DHT22;17105;55.652;37.710;2022-12-18T03:37:08;-0.40;91.00
30290;DHT22;17105;55.652;37.710;2022-12-18T03:37:43;-0.40;91.00
30290;DHT22;17105;55.652;37.710;2022-12-18T03:38:17;-0.40;91.10
30290;DHT22;17105;55.652;37.710;2022-12-18T03:38:56;-0.40;91.40
30290;DHT22;17105;55.652;37.710;2022-12-18T03:39:32;-0.50;91.20
30290;DHT22;17105;55.652;37.710;2022-12-18T03:40:06;-0.40;91.20
30290;DHT22;17105;55.652;37.710;2022-12-18T03:40:50;-0.40;91.20
30290;DHT22;17105;55.652;37.710;2022-12-18T03:41:31;-0.40;91.20
30290;DHT22;17105;55.652;37.710;2022-12-18T03:42:38;-0.40;91.20
30290;DHT22;17105;55.652;37.710;2022-12-18T03:43:23;-0.40;91.10
30290;DHT22;17105;55.652;37.710;2022-12-18T03:44:05;-0.40;91.10
30290;DHT22;17105;55.652;37.710;2022-12-18T03:44:50;-0.40;91.10
30290;DHT22;17105;55.652;37.710;2022-12-18T03:45:31;-0.40;91.00
30290;DHT22;17105;55.652;37.710;2022-12-18T03:46:11;-0.30;91.00
30290;DHT22;17105;55.652;37.710;2022-12-18T03:46:55;-0.30;91.00
30290;DHT22;17105;55.652;37.710;2022-12-18T03:47:36;-0.30;90.90
30290;DHT22;17105;55.652;37.710;2022-12-18T03:48:17;-0.30;90.80
30290;DHT22;17105;55.652;37.710;2022-12-18T03:48:59;-0.30;90.80
30290;DHT22;17105;55.652;37.710;2022-12-18T03:49:37;-0.30;90.80
30290;DHT22;17105;55.652;37.710;2022-12-18T03:50:16;-0.30;90.80
30290;DHT22;17105;55.652;37.710;2022-12-18T03:50:57;-0.30;90.80
30290;DHT22;17105;55.652;37.710;2022-12-18T03:51:36;-0.30;90.80
30290;DHT22;17105;55.652;37.710;2022-12-18T03:52:19;-0.30;90.80
30290;DHT22;17105;55.652;37.710;2022-12-18T03:52:59;-0.30;90.80
30290;DHT22;17105;55.652;37.710;2022-12-18T03:53:39;-0.30;90.90
30290;DHT22;17105;55.652;37.710;2022-12-18T03:54:17;-0.30;90.90
30290;DHT22;17105;55.652;37.710;2022-12-18T03:55:00;-0.30;90.80
30290;DHT22;17105;55.652;37.710;2022-12-18T03:55:36;-0.30;90.80
30290;DHT22;17105;55.652;37.710;2022-12-18T03:56:14;-0.30;90.70
30290;DHT22;17105;55.652;37.710;2022-12-18T03:56:54;-0.40;90.70
30290;DHT22;17105;55.652;37.710;2022-12-18T03:57:32;-0.40;90.80
30290;DHT22;17105;55.652;37.710;2022-12-18T03:58:11;-0.40;90.80
30290;DHT22;17105;55.652;37.710;2022-12-18T03:59:03;-0.40;91.10
30290;DHT22;17105;55.652;37.710;2022-12-18T03:59:39;-0.40;90.90